sensor_id;sensor_type;location;lat;lon;timestamp;pressure;altitude;pressure_sealevel;temperature;humidity
7474;BME280;3778;42.572;23.426;2023-02-04T00:00:02;95595.63;;;-146.70;61.22
7474;BME280;3778;42.572;23.426;2023-02-04T00:02:29;95562.28;;;-146.70;61.30
7474;BME280;3778;42.572;23.426;2023-02-04T00:04:56;95545.59;;;-146.70;60.83
7474;BME280;3778;42.572;23.426;2023-02-04T00:07:23;95553.94;;;-146.70;61.69
7474;BME280;3778;42.572;23.426;2023-02-04T00:09:50;95522.69;;;-146.70;61.74
7474;BME280;3778;42.572;23.426;2023-02-04T00:12:18;95543.53;;;-146.70;62.28
7474;BME280;3778;42.572;23.426;2023-02-04T00:14:45;95524.75;;;-146.70;62.67
7474;BME280;3778;42.572;23.426;2023-02-04T00:17:11;95587.31;;;-146.70;63.60
7474;BME280;3778;42.572;23.426;2023-02-04T00:19:38;95558.13;;;-146.70;63.92
7474;BME280;3778;42.572;23.426;2023-02-04T00:22:06;95574.78;;;-146.70;64.66
7474;BME280;3778;42.572;23.426;2023-02-04T00:24:33;95558.13;;;-146.70;65.74
7474;BME280;3778;42.572;23.426;2023-02-04T00:27:00;95624.81;;;-146.70;67.26
7474;BME280;3778;42.572;23.426;2023-02-04T00:29:28;95549.78;;;-146.70;68.03
7474;BME280;3778;42.572;23.426;2023-02-04T00:31:55;95614.41;;;-146.70;70.35
7474;BME280;3778;42.572;23.426;2023-02-04T00:34:22;95553.94;;;-146.70;71.84
7474;BME280;3778;42.572;23.426;2023-02-04T00:36:49;95654.00;;;-146.70;73.84
7474;BME280;3778;42.572;23.426;2023-02-04T00:39:15;95614.41;;;-146.70;75.97
7474;BME280;3778;42.572;23.426;2023-02-04T00:41:42;95599.81;;;-146.70;77.54
7474;BME280;3778;42.572;23.426;2023-02-04T00:44:09;95595.63;;;-146.70;78.33
7474;BME280;3778;42.572;23.426;2023-02-04T00:46:39;95614.41;;;-146.70;78.41
7474;BME280;3778;42.572;23.426;2023-02-04T00:49:06;95589.38;;;-146.70;78.68
7474;BME280;3778;42.572;23.426;2023-02-04T00:51:35;95595.63;;;-146.70;78.73
7474;BME280;3778;42.572;23.426;2023-02-04T00:54:02;95597.72;;;-146.70;79.42
7474;BME280;3778;42.572;23.426;2023-02-04T00:56:29;95616.47;;;-146.70;80.02
7474;BME280;3778;42.572;23.426;2023-02-04T00:58:55;95570.63;;;-146.70;80.23
7474;BME280;3778;42.572;23.426;2023-02-04T01:01:22;95612.31;;;-146.70;80.51
7474;BME280;3778;42.572;23.426;2023-02-04T01:03:50;95668.59;;;-146.70;80.59
7474;BME280;3778;42.572;23.426;2023-02-04T01:06:17;95620.66;;;-146.70;80.71
7474;BME280;3778;42.572;23.426;2023-02-04T01:08:44;95626.91;;;-146.70;80.73
7474;BME280;3778;42.572;23.426;2023-02-04T01:11:10;95645.66;;;-146.70;80.56
7474;BME280;3778;42.572;23.426;2023-02-04T01:13:37;95658.16;;;-146.70;80.64
7474;BME280;3778;42.572;23.426;2023-02-04T01:16:04;95639.41;;;-146.70;80.44
7474;BME280;3778;42.572;23.426;2023-02-04T01:18:31;95624.81;;;-146.70;80.71
7474;BME280;3778;42.572;23.426;2023-02-04T01:20:59;95651.91;;;-146.70;80.58
7474;BME280;3778;42.572;23.426;2023-02-04T01:23:25;95622.72;;;-146.70;80.51
7474;BME280;3778;42.572;23.426;2023-02-04T01:25:52;95637.31;;;-146.70;80.60
7474;BME280;3778;42.572;23.426;2023-02-04T01:28:19;95654.00;;;-146.70;80.33
7474;BME280;3778;42.572;23.426;2023-02-04T01:30:46;95626.91;;;-146.70;80.16
7474;BME280;3778;42.572;23.426;2023-02-04T01:33:12;95581.03;;;-146.70;80.08
7474;BME280;3778;42.572;23.426;2023-02-04T01:35:39;95606.06;;;-146.70;80.09
7474;BME280;3778;42.572;23.426;2023-02-04T01:38:07;95685.28;;;-146.70;79.84
7474;BME280;3778;42.572;23.426;2023-02-04T01:40:34;95631.06;;;-146.70;79.91
7474;BME280;3778;42.572;23.426;2023-02-04T01:43:01;95666.50;;;-146.70;80.31
7474;BME280;3778;42.572;23.426;2023-02-04T01:45:28;95610.22;;;-146.70;80.26
7474;BME280;3778;42.572;23.426;2023-02-04T01:47:58;95660.25;;;-146.70;80.25
7474;BME280;3778;42.572;23.426;2023-02-04T01:50:25;95578.97;;;-146.70;80.13
7474;BME280;3778;42.572;23.426;2023-02-04T01:52:51;95622.72;;;-146.70;80.48
7474;BME280;3778;42.572;23.426;2023-02-04T01:55:24;95697.78;;;-146.70;80.51
7474;BME280;3778;42.572;23.426;2023-02-04T01:57:51;95637.31;;;-146.70;80.53
7474;BME280;3778;42.572;23.426;2023-02-04T02:00:24;95643.56;;;-146.70;80.13
7474;BME280;3778;42.572;23.426;2023-02-04T02:02:52;95651.91;;;-146.70;79.94
7474;BME280;3778;42.572;23.426;2023-02-04T02:05:21;95616.47;;;-146.70;80.03
7474;BME280;3778;42.572;23.426;2023-02-04T02:07:50;95595.63;;;-146.70;79.64
7474;BME280;3778;42.572;23.426;2023-02-04T02:10:20;95595.63;;;-146.70;79.83
7474;BME280;3778;42.572;23.426;2023-02-04T02:12:47;95616.47;;;-146.70;80.10
7474;BME280;3778;42.572;23.426;2023-02-04T02:15:15;95620.66;;;-146.70;80.25
7474;BME280;3778;42.572;23.426;2023-02-04T02:17:42;95674.84;;;-146.70;80.44
7474;BME280;3778;42.572;23.426;2023-02-04T02:20:11;95643.56;;;-146.70;80.74
7474;BME280;3778;42.572;23.426;2023-02-04T02:22:46;95610.22;;;-146.70;80.58
7474;BME280;3778;42.572;23.426;2023-02-04T02:25:17;95624.81;;;-146.70;80.46
7474;BME280;3778;42.572;23.426;2023-02-04T02:27:44;95618.56;;;-146.70;80.51
7474;BME280;3778;42.572;23.426;2023-02-04T02:30:13;95593.56;;;-146.70;80.00
7474;BME280;3778;42.572;23.426;2023-02-04T02:32:42;95695.69;;;-146.70;79.94
7474;BME280;3778;42.572;23.426;2023-02-04T02:35:09;95633.16;;;-146.70;80.00
7474;BME280;3778;42.572;23.426;2023-02-04T02:37:36;95639.41;;;-146.70;80.05
7474;BME280;3778;42.572;23.426;2023-02-04T02:40:05;95645.66;;;-146.70;80.30
7474;BME280;3778;42.572;23.426;2023-02-04T02:42:34;95620.66;;;-146.70;80.63
7474;BME280;3778;42.572;23.426;2023-02-04T02:45:02;95635.25;;;-146.70;80.90
7474;BME280;3778;42.572;23.426;2023-02-04T02:47:29;95662.34;;;-146.70;81.17
7474;BME280;3778;42.572;23.426;2023-02-04T02:49:56;95639.41;;;-146.70;80.84
7474;BME280;3778;42.572;23.426;2023-02-04T02:52:22;95622.72;;;-146.70;81.00
7474;BME280;3778;42.572;23.426;2023-02-04T02:54:49;95693.59;;;-146.70;80.71
7474;BME280;3778;42.572;23.426;2023-02-04T02:57:19;95699.84;;;-146.70;80.36
7474;BME280;3778;42.572;23.426;2023-02-04T02:59:48;95689.44;;;-146.70;80.08
7474;BME280;3778;42.572;23.426;2023-02-04T03:02:17;95629.00;;;-146.70;79.92
7474;BME280;3778;42.572;23.426;2023-02-04T03:04:49;95666.50;;;-146.70;80.03
7474;BME280;3778;42.572;23.426;2023-02-04T03:07:16;95762.41;;;-146.70;79.42
7474;BME280;3778;42.572;23.426;2023-02-04T03:09:44;95633.16;;;-146.70;78.97
7474;BME280;3778;42.572;23.426;2023-02-04T03:12:11;95666.50;;;-146.70;79.07
7474;BME280;3778;42.572;23.426;2023-02-04T03:14:38;95626.91;;;-146.70;78.88
7474;BME280;3778;42.572;23.426;2023-02-04T03:17:08;95699.84;;;-146.70;78.83
7474;BME280;3778;42.572;23.426;2023-02-04T03:19:36;95670.69;;;-146.70;79.09
7474;BME280;3778;42.572;23.426;2023-02-04T03:22:04;95620.66;;;-146.70;79.65
7474;BME280;3778;42.572;23.426;2023-02-04T03:24:32;95641.50;;;-146.70;79.60
7474;BME280;3778;42.572;23.426;2023-02-04T03:26:59;95624.81;;;-146.70;79.88
7474;BME280;3778;42.572;23.426;2023-02-04T03:29:26;95622.72;;;-146.70;80.21
7474;BME280;3778;42.572;23.426;2023-02-04T03:31:53;95697.78;;;-146.70;80.23
7474;BME280;3778;42.572;23.426;2023-02-04T03:34:22;95683.19;;;-146.70;80.46
7474;BME280;3778;42.572;23.426;2023-02-04T03:36:48;95681.09;;;-146.70;79.88
7474;BME280;3778;42.572;23.426;2023-02-04T03:39:15;95629.00;;;-146.70;79.23
7474;BME280;3778;42.572;23.426;2023-02-04T03:41:42;95641.50;;;-146.70;78.83
7474;BME280;3778;42.572;23.426;2023-02-04T03:44:08;95654.00;;;-146.70;78.83
7474;BME280;3778;42.572;23.426;2023-02-04T03:46:35;95651.91;;;-146.70;78.76
7474;BME280;3778;42.572;23.426;2023-02-04T03:49:02;95597.72;;;-146.70;79.08
7474;BME280;3778;42.572;23.426;2023-02-04T03:51:30;95679.00;;;-146.70;79.18
7474;BME280;3778;42.572;23.426;2023-02-04T03:53:57;95606.06;;;-146.70;79.27
7474;BME280;3778;42.572;23.426;2023-02-04T03:56:23;95624.81;;;-146.70;79.36
7474;BME280;3778;42.572;23.426;2023-02-04T03:58:50;95595.63;;;-146.70;79.50
7474;BME280;3778;42.572;23.426;2023-02-04T04:01:17;95649.84;;;-146.70;79.17
7474;BME280;3778;42.572;23.426;2023-02-04T04:03:43;95687.34;;;-146.70;79.23
7474;BME280;3778;42.572;23.426;2023-02-04T04:06:10;95618.56;;;-146.70;78.92
7474;BME280;3778;42.572;23.426;2023-02-04T04:08:38;95570.63;;;-146.70;78.83
7474;BME280;3778;42.572;23.426;2023-02-04T04:11:05;95651.91;;;-146.70;78.50
7474;BME280;3778;42.572;23.426;2023-02-04T04:13:31;95676.94;;;-146.70;78.20
7474;BME280;3778;42.572;23.426;2023-02-04T04:15:58;95656.09;;;-146.70;78.73
7474;BME280;3778;42.572;23.426;2023-02-04T04:18:25;95651.91;;;-146.70;78.02
7474;BME280;3778;42.572;23.426;2023-02-04T04:20:51;95595.63;;;-146.70;77.87
7474;BME280;3778;42.572;23.426;2023-02-04T04:23:18;95610.22;;;-146.70;77.64
7474;BME280;3778;42.572;23.426;2023-02-04T04:25:46;95649.84;;;-146.70;77.90
7474;BME280;3778;42.572;23.426;2023-02-04T04:28:13;95624.81;;;-146.70;78.06
7474;BME280;3778;42.572;23.426;2023-02-04T04:30:40;95618.56;;;-146.70;77.95
7474;BME280;3778;42.572;23.426;2023-02-04T04:33:07;95585.22;;;-146.70;77.93
7474;BME280;3778;42.572;23.426;2023-02-04T04:35:33;95637.31;;;-146.70;78.13
7474;BME280;3778;42.572;23.426;2023-02-04T04:38:00;95616.47;;;-146.70;78.52
7474;BME280;3778;42.572;23.426;2023-02-04T04:40:27;95583.13;;;-146.70;77.82
7474;BME280;3778;42.572;23.426;2023-02-04T04:42:55;95649.84;;;-146.70;75.87
7474;BME280;3778;42.572;23.426;2023-02-04T04:45:22;95570.63;;;-146.70;74.94
7474;BME280;3778;42.572;23.426;2023-02-04T04:47:48;95587.31;;;-146.70;74.67
7474;BME280;3778;42.572;23.426;2023-02-04T04:50:15;95620.66;;;-146.70;74.56
7474;BME280;3778;42.572;23.426;2023-02-04T04:52:42;95608.16;;;-146.70;74.48
7474;BME280;3778;42.572;23.426;2023-02-04T04:55:09;95612.31;;;-146.70;74.89
7474;BME280;3778;42.572;23.426;2023-02-04T04:57:36;95560.19;;;-146.70;74.83
7474;BME280;3778;42.572;23.426;2023-02-04T05:00:06;95614.41;;;-146.70;75.25
7474;BME280;3778;42.572;23.426;2023-02-04T05:02:33;95624.81;;;-146.70;75.65
7474;BME280;3778;42.572;23.426;2023-02-04T05:05:00;95601.88;;;-146.70;75.72
7474;BME280;3778;42.572;23.426;2023-02-04T05:07:27;95587.31;;;-146.70;76.18
7474;BME280;3778;42.572;23.426;2023-02-04T05:09:53;95591.47;;;-146.70;76.07
7474;BME280;3778;42.572;23.426;2023-02-04T05:12:20;95629.00;;;-146.70;76.41
7474;BME280;3778;42.572;23.426;2023-02-04T05:14:47;95629.00;;;-146.70;76.93
7474;BME280;3778;42.572;23.426;2023-02-04T05:17:15;95624.81;;;-146.70;77.47
7474;BME280;3778;42.572;23.426;2023-02-04T05:19:41;95606.06;;;-146.70;77.94
7474;BME280;3778;42.572;23.426;2023-02-04T05:22:08;95568.53;;;-146.70;78.42
7474;BME280;3778;42.572;23.426;2023-02-04T05:24:35;95641.50;;;-146.70;78.85
7474;BME280;3778;42.572;23.426;2023-02-04T05:27:02;95620.66;;;-146.70;79.50
7474;BME280;3778;42.572;23.426;2023-02-04T05:29:28;95612.31;;;-146.70;79.79
7474;BME280;3778;42.572;23.426;2023-02-04T05:31:55;95622.72;;;-146.70;79.87
7474;BME280;3778;42.572;23.426;2023-02-04T05:34:23;95649.84;;;-146.70;80.33
7474;BME280;3778;42.572;23.426;2023-02-04T05:36:50;95641.50;;;-146.70;80.56
7474;BME280;3778;42.572;23.426;2023-02-04T05:39:17;95631.06;;;-146.70;80.34
7474;BME280;3778;42.572;23.426;2023-02-04T05:41:43;95583.13;;;-146.70;80.65
7474;BME280;3778;42.572;23.426;2023-02-04T05:44:10;95599.81;;;-146.70;80.75
7474;BME280;3778;42.572;23.426;2023-02-04T05:46:37;95618.56;;;-146.70;80.51
7474;BME280;3778;42.572;23.426;2023-02-04T05:49:03;95662.34;;;-146.70;80.55
7474;BME280;3778;42.572;23.426;2023-02-04T05:51:31;95597.72;;;-146.70;80.51
7474;BME280;3778;42.572;23.426;2023-02-04T05:53:58;95595.63;;;-146.70;80.31
7474;BME280;3778;42.572;23.426;2023-02-04T05:56:25;95574.78;;;-146.70;80.66
7474;BME280;3778;42.572;23.426;2023-02-04T05:58:51;95531.00;;;-146.70;81.14
7474;BME280;3778;42.572;23.426;2023-02-04T06:01:18;95622.72;;;-146.70;82.03
7474;BME280;3778;42.572;23.426;2023-02-04T06:03:45;95570.63;;;-146.70;82.96
7474;BME280;3778;42.572;23.426;2023-02-04T06:06:11;95639.41;;;-146.70;83.86
7474;BME280;3778;42.572;23.426;2023-02-04T06:08:39;95549.78;;;-146.70;82.69
7474;BME280;3778;42.572;23.426;2023-02-04T06:11:06;95556.03;;;-146.70;82.16
7474;BME280;3778;42.572;23.426;2023-02-04T06:13:33;95583.13;;;-146.70;82.03
7474;BME280;3778;42.572;23.426;2023-02-04T06:15:59;95545.59;;;-146.70;80.67
7474;BME280;3778;42.572;23.426;2023-02-04T06:18:26;95543.53;;;-146.70;79.95
7474;BME280;3778;42.572;23.426;2023-02-04T06:20:53;95528.94;;;-146.70;67.51
7474;BME280;3778;42.572;23.426;2023-02-04T06:23:19;95518.50;;;-146.70;62.48
7474;BME280;3778;42.572;23.426;2023-02-04T06:25:47;95487.25;;;-146.70;63.37
7474;BME280;3778;42.572;23.426;2023-02-04T06:28:14;95441.38;;;-146.70;59.64
7474;BME280;3778;42.572;23.426;2023-02-04T06:30:41;95426.78;;;-146.70;58.55
7474;BME280;3778;42.572;23.426;2023-02-04T06:33:08;95489.31;;;-146.70;58.75
7474;BME280;3778;42.572;23.426;2023-02-04T06:35:35;95433.06;;;-146.70;58.06
7474;BME280;3778;42.572;23.426;2023-02-04T06:38:01;95443.47;;;-146.70;58.03
7474;BME280;3778;42.572;23.426;2023-02-04T06:40:28;95437.22;;;-146.70;58.29
7474;BME280;3778;42.572;23.426;2023-02-04T06:42:56;95439.31;;;-146.70;58.21
7474;BME280;3778;42.572;23.426;2023-02-04T06:45:23;95399.69;;;-146.70;56.25
7474;BME280;3778;42.572;23.426;2023-02-04T06:47:49;95422.63;;;-146.70;55.10
7474;BME280;3778;42.572;23.426;2023-02-04T06:50:16;95424.72;;;-146.70;55.67
7474;BME280;3778;42.572;23.426;2023-02-04T06:52:43;95385.09;;;-146.70;55.80
7474;BME280;3778;42.572;23.426;2023-02-04T06:55:11;95408.03;;;-146.70;55.58
7474;BME280;3778;42.572;23.426;2023-02-04T06:57:38;95405.94;;;-146.70;55.95
7474;BME280;3778;42.572;23.426;2023-02-04T07:00:08;95410.13;;;-146.70;56.51
7474;BME280;3778;42.572;23.426;2023-02-04T07:02:36;95376.78;;;-146.70;56.99
7474;BME280;3778;42.572;23.426;2023-02-04T07:05:04;95360.09;;;-146.70;57.33
7474;BME280;3778;42.572;23.426;2023-02-04T07:07:31;95437.22;;;-146.70;57.09
7474;BME280;3778;42.572;23.426;2023-02-04T07:09:58;95420.53;;;-146.70;56.21
7474;BME280;3778;42.572;23.426;2023-02-04T07:12:25;95366.34;;;-146.70;56.21
7474;BME280;3778;42.572;23.426;2023-02-04T07:14:51;95349.69;;;-146.70;56.13
7474;BME280;3778;42.572;23.426;2023-02-04T07:17:20;95408.03;;;-146.70;56.83
7474;BME280;3778;42.572;23.426;2023-02-04T07:19:46;95374.69;;;-146.70;57.13
7474;BME280;3778;42.572;23.426;2023-02-04T07:22:13;95358.00;;;-146.70;57.33
7474;BME280;3778;42.572;23.426;2023-02-04T07:24:40;95383.03;;;-146.70;57.42
7474;BME280;3778;42.572;23.426;2023-02-04T07:27:06;95399.69;;;-146.70;57.68
7474;BME280;3778;42.572;23.426;2023-02-04T07:29:33;95418.47;;;-146.70;57.50
7474;BME280;3778;42.572;23.426;2023-02-04T07:32:00;95395.53;;;-146.70;57.95
7474;BME280;3778;42.572;23.426;2023-02-04T07:34:28;95380.94;;;-146.70;57.92
7474;BME280;3778;42.572;23.426;2023-02-04T07:36:54;95308.00;;;-146.70;57.55
7474;BME280;3778;42.572;23.426;2023-02-04T07:39:21;95345.50;;;-146.70;57.80
7474;BME280;3778;42.572;23.426;2023-02-04T07:41:48;95345.50;;;-146.70;56.89
7474;BME280;3778;42.572;23.426;2023-02-04T07:44:15;95312.16;;;-146.70;56.17
7474;BME280;3778;42.572;23.426;2023-02-04T07:46:42;95322.59;;;-146.70;56.19
7474;BME280;3778;42.572;23.426;2023-02-04T07:49:08;95316.31;;;-146.70;56.37
7474;BME280;3778;42.572;23.426;2023-02-04T07:51:36;95310.06;;;-146.70;56.60
7474;BME280;3778;42.572;23.426;2023-02-04T07:54:03;95328.84;;;-146.70;56.57
7474;BME280;3778;42.572;23.426;2023-02-04T07:56:30;95395.53;;;-146.70;56.64
7474;BME280;3778;42.572;23.426;2023-02-04T07:58:56;95345.50;;;-146.70;56.86
7474;BME280;3778;42.572;23.426;2023-02-04T08:01:23;95316.31;;;-146.70;56.96
7474;BME280;3778;42.572;23.426;2023-02-04T08:03:50;95322.59;;;-146.70;56.81
7474;BME280;3778;42.572;23.426;2023-02-04T08:06:16;95349.69;;;-146.70;56.51
7474;BME280;3778;42.572;23.426;2023-02-04T08:08:44;95341.34;;;-146.70;55.09
7474;BME280;3778;42.572;23.426;2023-02-04T08:11:11;95349.69;;;-146.70;54.91
7474;BME280;3778;42.572;23.426;2023-02-04T08:13:38;95310.06;;;-146.70;55.09
7474;BME280;3778;42.572;23.426;2023-02-04T08:16:05;95320.50;;;-146.70;55.51
7474;BME280;3778;42.572;23.426;2023-02-04T08:18:31;95345.50;;;-146.70;55.81
7474;BME280;3778;42.572;23.426;2023-02-04T08:20:58;95353.84;;;-146.70;56.03
7474;BME280;3778;42.572;23.426;2023-02-04T08:23:25;95383.03;;;-146.70;56.90
7474;BME280;3778;42.572;23.426;2023-02-04T08:25:54;95299.66;;;-146.70;57.21
7474;BME280;3778;42.572;23.426;2023-02-04T08:28:20;95320.50;;;-146.70;57.05
7474;BME280;3778;42.572;23.426;2023-02-04T08:30:47;95345.50;;;-146.70;57.90
7474;BME280;3778;42.572;23.426;2023-02-04T08:33:14;95343.44;;;-146.70;57.89
7474;BME280;3778;42.572;23.426;2023-02-04T08:35:40;95378.84;;;-146.70;57.84
7474;BME280;3778;42.572;23.426;2023-02-04T08:38:07;95353.84;;;-146.70;57.95
7474;BME280;3778;42.572;23.426;2023-02-04T08:40:34;95287.16;;;-146.70;57.42
7474;BME280;3778;42.572;23.426;2023-02-04T08:43:02;95280.91;;;-146.70;58.00
7474;BME280;3778;42.572;23.426;2023-02-04T08:45:29;95312.16;;;-146.70;57.85
7474;BME280;3778;42.572;23.426;2023-02-04T08:47:56;95349.69;;;-146.70;58.33
7474;BME280;3778;42.572;23.426;2023-02-04T08:50:22;95355.94;;;-146.70;58.66
7474;BME280;3778;42.572;23.426;2023-02-04T08:52:49;95285.06;;;-146.70;57.72
7474;BME280;3778;42.572;23.426;2023-02-04T08:55:16;95266.31;;;-146.70;56.00
7474;BME280;3778;42.572;23.426;2023-02-04T08:57:42;95318.41;;;-146.70;56.28
7474;BME280;3778;42.572;23.426;2023-02-04T09:00:12;95297.56;;;-146.70;55.79
7474;BME280;3778;42.572;23.426;2023-02-04T09:02:39;95272.56;;;-146.70;55.84
7474;BME280;3778;42.572;23.426;2023-02-04T09:05:06;95316.31;;;-146.70;56.45
7474;BME280;3778;42.572;23.426;2023-02-04T09:07:33;95295.47;;;-146.70;57.06
7474;BME280;3778;42.572;23.426;2023-02-04T09:09:59;95272.56;;;-146.70;57.07
7474;BME280;3778;42.572;23.426;2023-02-04T09:12:26;95320.50;;;-146.70;57.80
7474;BME280;3778;42.572;23.426;2023-02-04T09:14:53;95305.91;;;-146.70;58.11
7474;BME280;3778;42.572;23.426;2023-02-04T09:17:21;95299.66;;;-146.70;56.95
7474;BME280;3778;42.572;23.426;2023-02-04T09:19:47;95297.56;;;-146.70;56.90
7474;BME280;3778;42.572;23.426;2023-02-04T09:22:14;95278.81;;;-146.70;56.64
7474;BME280;3778;42.572;23.426;2023-02-04T09:24:41;95299.66;;;-146.70;56.69
7474;BME280;3778;42.572;23.426;2023-02-04T09:27:07;95326.75;;;-146.70;56.56
7474;BME280;3778;42.572;23.426;2023-02-04T09:29:34;95260.06;;;-146.70;55.56
7474;BME280;3778;42.572;23.426;2023-02-04T09:32:01;95249.63;;;-146.70;54.28
7474;BME280;3778;42.572;23.426;2023-02-04T09:34:29;95253.78;;;-146.70;52.98
7474;BME280;3778;42.572;23.426;2023-02-04T09:36:55;95235.03;;;-146.70;53.47
7474;BME280;3778;42.572;23.426;2023-02-04T09:39:22;95249.63;;;-146.70;53.57
7474;BME280;3778;42.572;23.426;2023-02-04T09:41:50;95216.28;;;-146.70;53.68
7474;BME280;3778;42.572;23.426;2023-02-04T09:44:19;95289.22;;;-146.70;53.97
7474;BME280;3778;42.572;23.426;2023-02-04T09:46:48;95312.16;;;-146.70;53.69
7474;BME280;3778;42.572;23.426;2023-02-04T09:49:16;95262.13;;;-146.70;54.07
7474;BME280;3778;42.572;23.426;2023-02-04T09:51:45;95295.47;;;-146.70;56.11
7474;BME280;3778;42.572;23.426;2023-02-04T09:54:14;95291.31;;;-146.70;57.06
7474;BME280;3778;42.572;23.426;2023-02-04T09:56:42;95299.66;;;-146.70;57.59
7474;BME280;3778;42.572;23.426;2023-02-04T09:59:10;95312.16;;;-146.70;57.15
7474;BME280;3778;42.572;23.426;2023-02-04T10:01:37;95308.00;;;-146.70;58.31
7474;BME280;3778;42.572;23.426;2023-02-04T10:04:04;95266.31;;;-146.70;58.69
7474;BME280;3778;42.572;23.426;2023-02-04T10:06:34;95268.38;;;-146.70;58.35
7474;BME280;3778;42.572;23.426;2023-02-04T10:09:03;95262.13;;;-146.70;58.20
7474;BME280;3778;42.572;23.426;2023-02-04T10:11:32;95295.47;;;-146.70;59.82
7474;BME280;3778;42.572;23.426;2023-02-04T10:14:01;95295.47;;;-146.70;59.92
7474;BME280;3778;42.572;23.426;2023-02-04T10:16:30;95289.22;;;-146.70;60.50
7474;BME280;3778;42.572;23.426;2023-02-04T10:19:00;95243.38;;;-146.70;58.21
7474;BME280;3778;42.572;23.426;2023-02-04T10:21:30;95295.47;;;-146.70;55.90
7474;BME280;3778;42.572;23.426;2023-02-04T10:23:58;95260.06;;;-146.70;54.39
7474;BME280;3778;42.572;23.426;2023-02-04T10:26:29;95249.63;;;-146.70;54.88
7474;BME280;3778;42.572;23.426;2023-02-04T10:28:58;95241.28;;;-146.70;54.47
7474;BME280;3778;42.572;23.426;2023-02-04T10:31:30;95253.78;;;-146.70;54.31
7474;BME280;3778;42.572;23.426;2023-02-04T10:34:06;95257.97;;;-146.70;55.78
7474;BME280;3778;42.572;23.426;2023-02-04T10:36:35;95299.66;;;-146.70;55.39
7474;BME280;3778;42.572;23.426;2023-02-04T10:39:04;95274.63;;;-146.70;55.57
7474;BME280;3778;42.572;23.426;2023-02-04T10:41:32;95280.91;;;-146.70;55.36
7474;BME280;3778;42.572;23.426;2023-02-04T10:44:04;95157.91;;;-146.70;55.07
7474;BME280;3778;42.572;23.426;2023-02-04T10:46:31;95266.31;;;-146.70;55.33
7474;BME280;3778;42.572;23.426;2023-02-04T10:48:58;95287.16;;;-146.70;55.69
7474;BME280;3778;42.572;23.426;2023-02-04T10:51:25;95328.84;;;-146.70;57.67
7474;BME280;3778;42.572;23.426;2023-02-04T10:53:52;95297.56;;;-146.70;58.46
7474;BME280;3778;42.572;23.426;2023-02-04T10:56:38;95295.47;;;-146.70;59.49
7474;BME280;3778;42.572;23.426;2023-02-04T10:59:05;95278.81;;;-146.70;59.74
7474;BME280;3778;42.572;23.426;2023-02-04T11:01:31;95232.97;;;-146.70;60.60
7474;BME280;3778;42.572;23.426;2023-02-04T11:03:58;95257.97;;;-146.70;60.19
7474;BME280;3778;42.572;23.426;2023-02-04T11:06:25;95312.16;;;-146.70;59.86
7474;BME280;3778;42.572;23.426;2023-02-04T11:08:52;95278.81;;;-146.70;60.18
7474;BME280;3778;42.572;23.426;2023-02-04T11:11:22;95295.47;;;-146.70;58.91
7474;BME280;3778;42.572;23.426;2023-02-04T11:14:01;95282.97;;;-146.70;58.42
7474;BME280;3778;42.572;23.426;2023-02-04T11:16:29;95243.38;;;-146.70;57.85
7474;BME280;3778;42.572;23.426;2023-02-04T11:18:59;95247.53;;;-146.70;56.08
7474;BME280;3778;42.572;23.426;2023-02-04T11:21:28;95308.00;;;-146.70;55.85
7474;BME280;3778;42.572;23.426;2023-02-04T11:24:21;95285.06;;;-146.70;56.90
7474;BME280;3778;42.572;23.426;2023-02-04T11:26:48;95274.63;;;-146.70;56.43
7474;BME280;3778;42.572;23.426;2023-02-04T11:29:29;95293.41;;;-146.70;57.11
7474;BME280;3778;42.572;23.426;2023-02-04T11:32:02;95241.28;;;-146.70;56.14
7474;BME280;3778;42.572;23.426;2023-02-04T11:34:45;95260.06;;;-146.70;57.11
7474;BME280;3778;42.572;23.426;2023-02-04T11:37:27;95264.22;;;-146.70;57.30
7474;BME280;3778;42.572;23.426;2023-02-04T11:39:57;95280.91;;;-146.70;57.30
7474;BME280;3778;42.572;23.426;2023-02-04T11:42:30;95264.22;;;-146.70;56.88
7474;BME280;3778;42.572;23.426;2023-02-04T11:45:01;95276.72;;;-146.70;56.68
7474;BME280;3778;42.572;23.426;2023-02-04T11:47:35;95276.72;;;-146.70;57.12
7474;BME280;3778;42.572;23.426;2023-02-04T11:50:10;95235.03;;;-146.70;57.31
7474;BME280;3778;42.572;23.426;2023-02-04T11:52:38;95245.47;;;-146.70;58.52
7474;BME280;3778;42.572;23.426;2023-02-04T11:55:05;95303.81;;;-146.70;59.01
7474;BME280;3778;42.572;23.426;2023-02-04T11:57:37;95291.31;;;-146.70;59.97
7474;BME280;3778;42.572;23.426;2023-02-04T12:00:12;95255.88;;;-146.70;61.12
7474;BME280;3778;42.572;23.426;2023-02-04T12:02:41;95303.81;;;-146.70;60.21
7474;BME280;3778;42.572;23.426;2023-02-04T12:05:11;95287.16;;;-146.70;59.61
7474;BME280;3778;42.572;23.426;2023-02-04T12:07:38;95297.56;;;-146.70;61.32
7474;BME280;3778;42.572;23.426;2023-02-04T12:10:13;95310.06;;;-146.70;60.22
7474;BME280;3778;42.572;23.426;2023-02-04T12:12:43;95305.91;;;-146.70;61.52
7474;BME280;3778;42.572;23.426;2023-02-04T12:15:19;95305.91;;;-146.70;61.42
7474;BME280;3778;42.572;23.426;2023-02-04T12:17:59;95339.25;;;-146.70;63.13
7474;BME280;3778;42.572;23.426;2023-02-04T12:20:26;95333.00;;;-146.70;64.31
7474;BME280;3778;42.572;23.426;2023-02-04T12:22:53;95310.06;;;-146.70;65.28
7474;BME280;3778;42.572;23.426;2023-02-04T12:25:19;95297.56;;;-146.70;65.94
7474;BME280;3778;42.572;23.426;2023-02-04T12:27:46;95387.19;;;-146.70;66.64
7474;BME280;3778;42.572;23.426;2023-02-04T12:30:14;95378.84;;;-146.70;67.10
7474;BME280;3778;42.572;23.426;2023-02-04T12:32:42;95370.53;;;-146.70;67.41
7474;BME280;3778;42.572;23.426;2023-02-04T12:35:09;95235.03;;;-146.70;67.86
7474;BME280;3778;42.572;23.426;2023-02-04T12:37:36;95380.94;;;-146.70;69.16
7474;BME280;3778;42.572;23.426;2023-02-04T12:40:03;95389.28;;;-146.70;68.61
7474;BME280;3778;42.572;23.426;2023-02-04T12:42:30;95337.16;;;-146.70;68.54
7474;BME280;3778;42.572;23.426;2023-02-04T12:44:57;95389.28;;;-146.70;68.98
7474;BME280;3778;42.572;23.426;2023-02-04T12:47:25;95387.19;;;-146.70;69.39
7474;BME280;3778;42.572;23.426;2023-02-04T12:49:52;95295.47;;;-146.70;68.41
7474;BME280;3778;42.572;23.426;2023-02-04T12:52:19;95399.69;;;-146.70;65.79